sensor_id;sensor_type;location;lat;lon;timestamp;P1;durP1;ratioP1;P2;durP2;ratioP2
60859;SDS011;46694;54.382;9.708;2022-09-09T00:05:21;120.50;;;56.47;;
60859;SDS011;46694;54.382;9.708;2022-09-09T00:08:07;99.30;;;54.37;;
60859;SDS011;46694;54.382;9.708;2022-09-09T00:10:58;94.33;;;54.20;;
60859;SDS011;46694;54.382;9.708;2022-09-09T00:13:48;114.90;;;59.70;;
60859;SDS011;46694;54.382;9.708;2022-09-09T00:16:32;109.47;;;57.23;;
60859;SDS011;46694;54.382;9.708;2022-09-09T00:19:20;110.77;;;58.30;;
60859;SDS011;46694;54.382;9.708;2022-09-09T00:25:02;119.87;;;60.67;;
60859;SDS011;46694;54.382;9.708;2022-09-09T00:27:51;153.07;;;65.20;;
60859;SDS011;46694;54.382;9.708;2022-09-09T00:30:34;127.47;;;59.40;;
60859;SDS011;46694;54.382;9.708;2022-09-09T00:33:15;104.63;;;54.60;;
60859;SDS011;46694;54.382;9.708;2022-09-09T00:36:01;115.50;;;57.73;;
60859;SDS011;46694;54.382;9.708;2022-09-09T00:38:45;102.10;;;55.13;;
60859;SDS011;46694;54.382;9.708;2022-09-09T00:45:12;103.17;;;55.20;;
60859;SDS011;46694;54.382;9.708;2022-09-09T00:54:55;95.67;;;51.97;;
60859;SDS011;46694;54.382;9.708;2022-09-09T00:57:48;87.23;;;50.73;;
60859;SDS011;46694;54.382;9.708;2022-09-09T01:00:33;85.70;;;49.73;;
60859;SDS011;46694;54.382;9.708;2022-09-09T01:03:25;99.77;;;53.07;;
60859;SDS011;46694;54.382;9.708;2022-09-09T01:06:33;83.23;;;48.83;;
60859;SDS011;46694;54.382;9.708;2022-09-09T01:09:29;113.00;;;55.67;;
60859;SDS011;46694;54.382;9.708;2022-09-09T01:12:42;92.43;;;49.93;;
60859;SDS011;46694;54.382;9.708;2022-09-09T01:15:26;95.47;;;50.57;;
60859;SDS011;46694;54.382;9.708;2022-09-09T01:18:10;80.77;;;48.57;;
60859;SDS011;46694;54.382;9.708;2022-09-09T01:27:58;104.13;;;51.50;;
60859;SDS011;46694;54.382;9.708;2022-09-09T01:30:42;105.27;;;50.07;;
60859;SDS011;46694;54.382;9.708;2022-09-09T01:33:22;91.90;;;51.30;;
60859;SDS011;46694;54.382;9.708;2022-09-09T01:36:09;85.53;;;49.83;;
60859;SDS011;46694;54.382;9.708;2022-09-09T01:39:08;82.67;;;49.13;;
60859;SDS011;46694;54.382;9.708;2022-09-09T01:41:49;90.43;;;49.20;;
60859;SDS011;46694;54.382;9.708;2022-09-09T01:44:29;88.33;;;48.67;;
60859;SDS011;46694;54.382;9.708;2022-09-09T01:47:09;92.33;;;50.13;;
60859;SDS011;46694;54.382;9.708;2022-09-09T01:49:48;99.87;;;50.13;;
60859;SDS011;46694;54.382;9.708;2022-09-09T01:52:28;75.60;;;45.80;;
60859;SDS011;46694;54.382;9.708;2022-09-09T01:55:10;89.20;;;48.87;;
60859;SDS011;46694;54.382;9.708;2022-09-09T01:57:53;88.17;;;48.40;;
60859;SDS011;46694;54.382;9.708;2022-09-09T02:00:47;84.17;;;46.60;;
60859;SDS011;46694;54.382;9.708;2022-09-09T02:03:44;95.30;;;49.13;;
60859;SDS011;46694;54.382;9.708;2022-09-09T02:06:35;108.20;;;50.90;;
60859;SDS011;46694;54.382;9.708;2022-09-09T02:09:19;95.97;;;48.00;;
60859;SDS011;46694;54.382;9.708;2022-09-09T02:12:08;107.83;;;48.20;;
60859;SDS011;46694;54.382;9.708;2022-09-09T02:14:58;97.97;;;48.47;;
60859;SDS011;46694;54.382;9.708;2022-09-09T02:17:45;98.00;;;49.03;;
60859;SDS011;46694;54.382;9.708;2022-09-09T02:20:28;110.67;;;45.63;;
60859;SDS011;46694;54.382;9.708;2022-09-09T02:23:12;101.80;;;49.10;;
60859;SDS011;46694;54.382;9.708;2022-09-09T02:25:53;102.97;;;48.10;;
60859;SDS011;46694;54.382;9.708;2022-09-09T02:28:35;97.80;;;47.00;;
60859;SDS011;46694;54.382;9.708;2022-09-09T02:31:17;103.57;;;48.67;;
60859;SDS011;46694;54.382;9.708;2022-09-09T02:34:01;105.93;;;49.33;;
60859;SDS011;46694;54.382;9.708;2022-09-09T02:36:44;100.77;;;49.73;;
60859;SDS011;46694;54.382;9.708;2022-09-09T02:39:26;104.00;;;49.53;;
60859;SDS011;46694;54.382;9.708;2022-09-09T02:42:06;121.63;;;49.73;;
60859;SDS011;46694;54.382;9.708;2022-09-09T02:44:47;106.17;;;49.53;;
60859;SDS011;46694;54.382;9.708;2022-09-09T02:47:45;106.83;;;49.90;;
60859;SDS011;46694;54.382;9.708;2022-09-09T03:00:04;131.73;;;53.07;;
60859;SDS011;46694;54.382;9.708;2022-09-09T03:02:45;157.27;;;51.77;;
60859;SDS011;46694;54.382;9.708;2022-09-09T03:05:25;119.83;;;52.03;;
60859;SDS011;46694;54.382;9.708;2022-09-09T03:08:05;141.40;;;52.10;;
60859;SDS011;46694;54.382;9.708;2022-09-09T03:10:44;121.10;;;52.10;;
60859;SDS011;46694;54.382;9.708;2022-09-09T03:13:24;117.13;;;50.47;;
60859;SDS011;46694;54.382;9.708;2022-09-09T03:16:03;120.53;;;52.20;;
60859;SDS011;46694;54.382;9.708;2022-09-09T03:18:44;135.87;;;52.07;;
60859;SDS011;46694;54.382;9.708;2022-09-09T03:21:24;120.73;;;51.37;;
60859;SDS011;46694;54.382;9.708;2022-09-09T03:24:04;114.63;;;49.20;;
60859;SDS011;46694;54.382;9.708;2022-09-09T03:26:45;131.83;;;48.43;;
60859;SDS011;46694;54.382;9.708;2022-09-09T03:29:25;115.63;;;48.67;;
60859;SDS011;46694;54.382;9.708;2022-09-09T03:32:04;104.20;;;47.50;;
60859;SDS011;46694;54.382;9.708;2022-09-09T03:34:44;144.63;;;52.60;;
60859;SDS011;46694;54.382;9.708;2022-09-09T03:37:26;106.23;;;47.77;;
60859;SDS011;46694;54.382;9.708;2022-09-09T03:40:05;120.20;;;49.77;;
60859;SDS011;46694;54.382;9.708;2022-09-09T03:42:47;116.60;;;47.73;;
60859;SDS011;46694;54.382;9.708;2022-09-09T03:45:27;108.10;;;48.10;;
60859;SDS011;46694;54.382;9.708;2022-09-09T03:48:07;112.57;;;47.10;;
60859;SDS011;46694;54.382;9.708;2022-09-09T03:50:49;101.10;;;47.80;;
60859;SDS011;46694;54.382;9.708;2022-09-09T03:53:30;124.63;;;50.70;;
60859;SDS011;46694;54.382;9.708;2022-09-09T03:56:10;128.07;;;49.70;;
60859;SDS011;46694;54.382;9.708;2022-09-09T03:58:50;143.67;;;51.40;;
60859;SDS011;46694;54.382;9.708;2022-09-09T04:01:29;141.97;;;51.50;;
60859;SDS011;46694;54.382;9.708;2022-09-09T04:04:09;126.77;;;51.93;;
60859;SDS011;46694;54.382;9.708;2022-09-09T04:06:50;118.00;;;51.20;;
60859;SDS011;46694;54.382;9.708;2022-09-09T04:09:30;129.77;;;52.93;;
60859;SDS011;46694;54.382;9.708;2022-09-09T04:12:10;124.43;;;52.50;;
60859;SDS011;46694;54.382;9.708;2022-09-09T04:14:51;125.93;;;55.30;;
60859;SDS011;46694;54.382;9.708;2022-09-09T04:17:31;114.43;;;48.33;;
60859;SDS011;46694;54.382;9.708;2022-09-09T04:20:11;106.67;;;48.20;;
60859;SDS011;46694;54.382;9.708;2022-09-09T04:22:50;123.97;;;50.60;;
60859;SDS011;46694;54.382;9.708;2022-09-09T04:25:30;111.57;;;50.30;;
60859;SDS011;46694;54.382;9.708;2022-09-09T04:28:10;110.73;;;49.90;;
60859;SDS011;46694;54.382;9.708;2022-09-09T04:30:49;87.07;;;48.43;;
60859;SDS011;46694;54.382;9.708;2022-09-09T04:33:30;116.77;;;49.20;;
60859;SDS011;46694;54.382;9.708;2022-09-09T04:36:10;89.57;;;44.87;;
60859;SDS011;46694;54.382;9.708;2022-09-09T04:38:51;86.87;;;42.73;;
60859;SDS011;46694;54.382;9.708;2022-09-09T04:41:31;85.70;;;43.43;;
60859;SDS011;46694;54.382;9.708;2022-09-09T04:44:10;89.90;;;46.60;;
60859;SDS011;46694;54.382;9.708;2022-09-09T04:46:50;101.73;;;46.73;;
60859;SDS011;46694;54.382;9.708;2022-09-09T04:49:30;111.50;;;49.00;;
60859;SDS011;46694;54.382;9.708;2022-09-09T04:52:10;107.70;;;48.47;;
60859;SDS011;46694;54.382;9.708;2022-09-09T04:54:50;130.20;;;51.50;;
60859;SDS011;46694;54.382;9.708;2022-09-09T04:57:29;103.73;;;50.03;;
60859;SDS011;46694;54.382;9.708;2022-09-09T05:00:10;92.57;;;45.90;;
60859;SDS011;46694;54.382;9.708;2022-09-09T05:02:51;84.00;;;46.37;;
60859;SDS011;46694;54.382;9.708;2022-09-09T05:05:31;98.93;;;47.10;;
60859;SDS011;46694;54.382;9.708;2022-09-09T05:08:15;123.27;;;50.17;;
60859;SDS011;46694;54.382;9.708;2022-09-09T05:10:54;129.27;;;52.07;;
60859;SDS011;46694;54.382;9.708;2022-09-09T05:13:34;106.77;;;50.57;;
60859;SDS011;46694;54.382;9.708;2022-09-09T05:19:19;132.23;;;51.93;;
60859;SDS011;46694;54.382;9.708;2022-09-09T05:21:59;139.23;;;53.10;;
60859;SDS011;46694;54.382;9.708;2022-09-09T05:24:39;116.47;;;51.03;;
60859;SDS011;46694;54.382;9.708;2022-09-09T05:27:19;142.27;;;50.40;;
60859;SDS011;46694;54.382;9.708;2022-09-09T05:29:59;130.07;;;52.07;;
60859;SDS011;46694;54.382;9.708;2022-09-09T05:32:38;133.03;;;52.73;;
60859;SDS011;46694;54.382;9.708;2022-09-09T05:35:18;131.00;;;51.70;;
60859;SDS011;46694;54.382;9.708;2022-09-09T05:37:59;116.20;;;51.20;;
60859;SDS011;46694;54.382;9.708;2022-09-09T05:40:39;153.63;;;55.63;;
60859;SDS011;46694;54.382;9.708;2022-09-09T05:43:27;160.43;;;56.40;;
60859;SDS011;46694;54.382;9.708;2022-09-09T05:46:08;201.13;;;61.10;;
60859;SDS011;46694;54.382;9.708;2022-09-09T05:48:51;120.33;;;52.83;;
60859;SDS011;46694;54.382;9.708;2022-09-09T05:51:32;184.10;;;59.13;;
60859;SDS011;46694;54.382;9.708;2022-09-09T05:54:11;203.87;;;57.97;;
60859;SDS011;46694;54.382;9.708;2022-09-09T05:56:53;146.03;;;55.27;;
60859;SDS011;46694;54.382;9.708;2022-09-09T05:59:33;168.80;;;57.30;;
60859;SDS011;46694;54.382;9.708;2022-09-09T06:02:13;161.87;;;58.60;;
60859;SDS011;46694;54.382;9.708;2022-09-09T06:04:53;199.03;;;59.57;;
60859;SDS011;46694;54.382;9.708;2022-09-09T06:07:34;232.13;;;62.77;;
60859;SDS011;46694;54.382;9.708;2022-09-09T06:10:14;191.40;;;57.50;;
60859;SDS011;46694;54.382;9.708;2022-09-09T06:12:53;195.03;;;59.87;;
60859;SDS011;46694;54.382;9.708;2022-09-09T06:15:33;189.87;;;60.60;;
60859;SDS011;46694;54.382;9.708;2022-09-09T06:18:13;155.50;;;55.50;;
60859;SDS011;46694;54.382;9.708;2022-09-09T06:20:59;149.67;;;56.37;;
60859;SDS011;46694;54.382;9.708;2022-09-09T06:23:42;180.73;;;59.90;;
60859;SDS011;46694;54.382;9.708;2022-09-09T06:26:30;169.13;;;57.63;;
60859;SDS011;46694;54.382;9.708;2022-09-09T06:29:12;171.40;;;58.67;;
60859;SDS011;46694;54.382;9.708;2022-09-09T06:31:52;156.03;;;59.07;;
60859;SDS011;46694;54.382;9.708;2022-09-09T06:34:32;159.00;;;57.47;;
60859;SDS011;46694;54.382;9.708;2022-09-09T06:37:11;165.00;;;56.27;;
60859;SDS011;46694;54.382;9.708;2022-09-09T06:39:51;156.93;;;55.87;;
60859;SDS011;46694;54.382;9.708;2022-09-09T06:42:31;159.10;;;55.97;;
60859;SDS011;46694;54.382;9.708;2022-09-09T06:45:11;146.20;;;53.67;;
60859;SDS011;46694;54.382;9.708;2022-09-09T06:47:50;163.73;;;57.87;;
60859;SDS011;46694;54.382;9.708;2022-09-09T06:50:30;142.87;;;56.93;;
60859;SDS011;46694;54.382;9.708;2022-09-09T06:53:10;130.77;;;56.40;;
60859;SDS011;46694;54.382;9.708;2022-09-09T06:55:49;122.77;;;53.30;;
60859;SDS011;46694;54.382;9.708;2022-09-09T06:58:30;124.47;;;52.30;;
60859;SDS011;46694;54.382;9.708;2022-09-09T07:01:11;122.17;;;52.27;;
60859;SDS011;46694;54.382;9.708;2022-09-09T07:03:54;109.33;;;49.30;;
60859;SDS011;46694;54.382;9.708;2022-09-09T07:06:38;101.47;;;48.13;;
60859;SDS011;46694;54.382;9.708;2022-09-09T07:09:21;95.83;;;47.80;;
60859;SDS011;46694;54.382;9.708;2022-09-09T07:12:02;83.07;;;45.80;;
60859;SDS011;46694;54.382;9.708;2022-09-09T07:14:44;82.20;;;46.17;;
60859;SDS011;46694;54.382;9.708;2022-09-09T07:17:24;84.10;;;45.73;;
60859;SDS011;46694;54.382;9.708;2022-09-09T07:20:04;79.67;;;42.47;;
60859;SDS011;46694;54.382;9.708;2022-09-09T07:22:44;73.63;;;41.10;;
60859;SDS011;46694;54.382;9.708;2022-09-09T07:25:23;65.60;;;38.90;;
60859;SDS011;46694;54.382;9.708;2022-09-09T07:28:06;61.67;;;38.37;;
60859;SDS011;46694;54.382;9.708;2022-09-09T07:30:59;62.60;;;38.70;;
60859;SDS011;46694;54.382;9.708;2022-09-09T07:33:40;57.87;;;38.60;;
60859;SDS011;46694;54.382;9.708;2022-09-09T07:36:24;53.67;;;38.47;;
60859;SDS011;46694;54.382;9.708;2022-09-09T07:39:08;51.33;;;38.37;;
60859;SDS011;46694;54.382;9.708;2022-09-09T07:41:54;50.50;;;37.27;;
60859;SDS011;46694;54.382;9.708;2022-09-09T07:44:33;49.27;;;38.30;;
60859;SDS011;46694;54.382;9.708;2022-09-09T07:47:14;49.57;;;36.70;;
60859;SDS011;46694;54.382;9.708;2022-09-09T07:49:53;43.77;;;35.30;;
60859;SDS011;46694;54.382;9.708;2022-09-09T07:52:33;44.13;;;34.93;;
60859;SDS011;46694;54.382;9.708;2022-09-09T07:55:13;44.93;;;35.07;;
60859;SDS011;46694;54.382;9.708;2022-09-09T07:57:53;47.73;;;32.67;;
60859;SDS011;46694;54.382;9.708;2022-09-09T08:00:34;36.73;;;32.50;;
60859;SDS011;46694;54.382;9.708;2022-09-09T08:03:14;37.33;;;33.00;;
60859;SDS011;46694;54.382;9.708;2022-09-09T08:05:59;37.63;;;32.60;;
60859;SDS011;46694;54.382;9.708;2022-09-09T08:08:49;46.57;;;33.77;;
60859;SDS011;46694;54.382;9.708;2022-09-09T08:11:32;40.47;;;31.97;;
60859;SDS011;46694;54.382;9.708;2022-09-09T08:14:14;42.43;;;33.17;;
60859;SDS011;46694;54.382;9.708;2022-09-09T08:16:53;40.50;;;32.07;;
60859;SDS011;46694;54.382;9.708;2022-09-09T08:19:33;37.93;;;32.23;;
60859;SDS011;46694;54.382;9.708;2022-09-09T08:22:14;36.23;;;30.97;;
60859;SDS011;46694;54.382;9.708;2022-09-09T08:24:54;43.33;;;32.90;;
60859;SDS011;46694;54.382;9.708;2022-09-09T08:27:33;35.43;;;29.47;;
60859;SDS011;46694;54.382;9.708;2022-09-09T08:30:13;38.30;;;29.47;;
60859;SDS011;46694;54.382;9.708;2022-09-09T08:32:52;46.63;;;32.17;;
60859;SDS011;46694;54.382;9.708;2022-09-09T08:35:32;36.20;;;28.90;;
60859;SDS011;46694;54.382;9.708;2022-09-09T08:38:12;29.57;;;26.37;;
60859;SDS011;46694;54.382;9.708;2022-09-09T08:40:52;29.93;;;26.50;;
60859;SDS011;46694;54.382;9.708;2022-09-09T08:43:38;35.50;;;26.93;;
60859;SDS011;46694;54.382;9.708;2022-09-09T08:46:25;28.33;;;24.07;;
60859;SDS011;46694;54.382;9.708;2022-09-09T08:53:02;25.17;;;22.50;;
60859;SDS011;46694;54.382;9.708;2022-09-09T08:56:09;31.30;;;23.97;;
60859;SDS011;46694;54.382;9.708;2022-09-09T08:58:54;24.60;;;20.47;;
60859;SDS011;46694;54.382;9.708;2022-09-09T09:11:07;22.43;;;18.70;;
60859;SDS011;46694;54.382;9.708;2022-09-09T09:13:48;25.53;;;20.27;;
60859;SDS011;46694;54.382;9.708;2022-09-09T09:16:47;19.97;;;18.00;;
60859;SDS011;46694;54.382;9.708;2022-09-09T09:19:45;22.43;;;18.50;;
60859;SDS011;46694;54.382;9.708;2022-09-09T09:31:35;20.33;;;18.20;;
60859;SDS011;46694;54.382;9.708;2022-09-09T09:34:14;21.23;;;19.20;;
60859;SDS011;46694;54.382;9.708;2022-09-09T09:36:55;22.67;;;20.47;;
60859;SDS011;46694;54.382;9.708;2022-09-09T09:39:36;23.77;;;21.37;;
60859;SDS011;46694;54.382;9.708;2022-09-09T09:42:17;25.80;;;23.00;;
60859;SDS011;46694;54.382;9.708;2022-09-09T09:45:07;29.67;;;23.30;;
60859;SDS011;46694;54.382;9.708;2022-09-09T09:48:03;27.90;;;24.20;;
60859;SDS011;46694;54.382;9.708;2022-09-09T09:50:56;23.93;;;21.00;;
60859;SDS011;46694;54.382;9.708;2022-09-09T09:53:42;24.37;;;21.93;;
60859;SDS011;46694;54.382;9.708;2022-09-09T09:56:27;24.73;;;21.20;;
60859;SDS011;46694;54.382;9.708;2022-09-09T09:59:59;25.77;;;22.90;;
60859;SDS011;46694;54.382;9.708;2022-09-09T10:05:05;23.47;;;21.07;;
60859;SDS011;46694;54.382;9.708;2022-09-09T10:08:01;20.30;;;18.30;;
60859;SDS011;46694;54.382;9.708;2022-09-09T10:27:24;17.30;;;15.80;;
60859;SDS011;46694;54.382;9.708;2022-09-09T10:36:49;15.30;;;10.37;;
60859;SDS011;46694;54.382;9.708;2022-09-09T10:39:36;13.60;;;9.90;;
60859;SDS011;46694;54.382;9.708;2022-09-09T10:42:19;12.23;;;9.47;;
60859;SDS011;46694;54.382;9.708;2022-09-09T10:50:52;8.33;;;7.30;;
60859;SDS011;46694;54.382;9.708;2022-09-09T10:54:23;6.37;;;4.97;;
60859;SDS011;46694;54.382;9.708;2022-09-09T10:57:03;9.53;;;5.73;;
60859;SDS011;46694;54.382;9.708;2022-09-09T10:59:52;11.50;;;5.60;;
60859;SDS011;46694;54.382;9.708;2022-09-09T11:02:36;10.63;;;6.40;;
60859;SDS011;46694;54.382;9.708;2022-09-09T11:05:20;13.20;;;5.00;;
60859;SDS011;46694;54.382;9.708;2022-09-09T11:08:14;12.27;;;5.90;;
60859;SDS011;46694;54.382;9.708;2022-09-09T11:11:06;19.33;;;5.83;;
60859;SDS011;46694;54.382;9.708;2022-09-09T11:14:18;12.20;;;4.57;;
60859;SDS011;46694;54.382;9.708;2022-09-09T11:17:16;14.33;;;5.20;;
60859;SDS011;46694;54.382;9.708;2022-09-09T11:20:01;10.93;;;5.00;;
60859;SDS011;46694;54.382;9.708;2022-09-09T11:26:15;11.13;;;4.43;;
60859;SDS011;46694;54.382;9.708;2022-09-09T11:44:51;12.20;;;4.17;;
60859;SDS011;46694;54.382;9.708;2022-09-09T11:47:35;8.50;;;3.30;;
60859;SDS011;46694;54.382;9.708;2022-09-09T11:56:45;9.03;;;1.73;;
60859;SDS011;46694;54.382;9.708;2022-09-09T12:02:28;5.30;;;1.57;;
60859;SDS011;46694;54.382;9.708;2022-09-09T12:05:11;7.53;;;1.70;;
60859;SDS011;46694;54.382;9.708;2022-09-09T12:07:55;8.00;;;1.97;;
60859;SDS011;46694;54.382;9.708;2022-09-09T12:10:38;6.07;;;1.27;;
60859;SDS011;46694;54.382;9.708;2022-09-09T12:13:20;7.50;;;1.23;;
60859;SDS011;46694;54.382;9.708;2022-09-09T12:16:05;5.30;;;1.30;;
60859;SDS011;46694;54.382;9.708;2022-09-09T12:22:04;7.33;;;1.70;;
60859;SDS011;46694;54.382;9.708;2022-09-09T12:24:57;4.90;;;1.70;;
60859;SDS011;46694;54.382;9.708;2022-09-09T12:31:41;6.27;;;2.00;;
60859;SDS011;46694;54.382;9.708;2022-09-09T12:43:18;6.40;;;1.27;;
60859;SDS011;46694;54.382;9.708;2022-09-09T12:46:01;7.27;;;1.73;;
60859;SDS011;46694;54.382;9.708;2022-09-09T12:48:47;6.20;;;1.37;;
60859;SDS011;46694;54.382;9.708;2022-09-09T12:51:28;7.87;;;2.00;;
60859;SDS011;46694;54.382;9.708;2022-09-09T12:54:13;7.37;;;1.63;;
60859;SDS011;46694;54.382;9.708;2022-09-09T12:56:54;6.13;;;1.80;;
60859;SDS011;46694;54.382;9.708;2022-09-09T12:59:37;6.77;;;1.30;;
60859;SDS011;46694;54.382;9.708;2022-09-09T13:02:26;5.53;;;1.27;;
60859;SDS011;46694;54.382;9.708;2022-09-09T13:05:13;6.47;;;1.63;;
60859;SDS011;46694;54.382;9.708;2022-09-09T13:08:00;5.13;;;1.07;;
60859;SDS011;46694;54.382;9.708;2022-09-09T13:13:40;4.93;;;1.30;;
60859;SDS011;46694;54.382;9.708;2022-09-09T13:16:31;5.43;;;1.07;;
60859;SDS011;46694;54.382;9.708;2022-09-09T13:19:14;4.53;;;1.00;;
60859;SDS011;46694;54.382;9.708;2022-09-09T13:21:55;6.40;;;1.17;;
60859;SDS011;46694;54.382;9.708;2022-09-09T13:24:34;6.17;;;1.27;;
60859;SDS011;46694;54.382;9.708;2022-09-09T13:27:28;4.37;;;1.23;;
60859;SDS011;46694;54.382;9.708;2022-09-09T13:38:36;6.70;;;1.70;;
60859;SDS011;46694;54.382;9.708;2022-09-09T13:41:35;5.03;;;1.83;;
60859;SDS011;46694;54.382;9.708;2022-09-09T13:44:24;5.10;;;1.63;;
60859;SDS011;46694;54.382;9.708;2022-09-09T13:47:18;6.67;;;1.30;;
60859;SDS011;46694;54.382;9.708;2022-09-09T13:53:15;5.00;;;1.30;;
60859;SDS011;46694;54.382;9.708;2022-09-09T13:55:54;6.60;;;2.10;;
60859;SDS011;46694;54.382;9.708;2022-09-09T13:58:35;3.37;;;1.27;;
60859;SDS011;46694;54.382;9.708;2022-09-09T14:01:14;4.50;;;1.20;;
60859;SDS011;46694;54.382;9.708;2022-09-09T14:03:54;3.70;;;0.70;;
60859;SDS011;46694;54.382;9.708;2022-09-09T14:06:34;3.70;;;0.67;;
60859;SDS011;46694;54.382;9.708;2022-09-09T14:09:17;7.47;;;1.23;;
60859;SDS011;46694;54.382;9.708;2022-09-09T14:11:57;6.30;;;1.20;;
60859;SDS011;46694;54.382;9.708;2022-09-09T14:14:37;5.60;;;1.17;;
60859;SDS011;46694;54.382;9.708;2022-09-09T14:17:17;4.60;;;1.23;;
60859;SDS011;46694;54.382;9.708;2022-09-09T14:19:57;3.60;;;0.80;;
60859;SDS011;46694;54.382;9.708;2022-09-09T14:22:37;4.93;;;1.00;;
60859;SDS011;46694;54.382;9.708;2022-09-09T14:25:17;6.43;;;1.10;;
60859;SDS011;46694;54.382;9.708;2022-09-09T14:27:57;3.80;;;0.80;;
60859;SDS011;46694;54.382;9.708;2022-09-09T14:30:37;7.93;;;1.47;;
60859;SDS011;46694;54.382;9.708;2022-09-09T14:33:18;4.13;;;0.70;;
60859;SDS011;46694;54.382;9.708;2022-09-09T14:35:59;7.03;;;1.13;;
60859;SDS011;46694;54.382;9.708;2022-09-09T14:38:41;2.83;;;0.73;;
60859;SDS011;46694;54.382;9.708;2022-09-09T14:41:21;7.73;;;1.37;;
60859;SDS011;46694;54.382;9.708;2022-09-09T14:44:01;5.77;;;1.23;;
60859;SDS011;46694;54.382;9.708;2022-09-09T14:46:40;5.70;;;1.13;;
60859;SDS011;46694;54.382;9.708;2022-09-09T14:49:21;5.83;;;1.40;;
60859;SDS011;46694;54.382;9.708;2022-09-09T14:52:01;7.87;;;1.00;;
60859;SDS011;46694;54.382;9.708;2022-09-09T14:54:41;4.30;;;1.00;;
60859;SDS011;46694;54.382;9.708;2022-09-09T14:57:20;9.83;;;1.17;;
60859;SDS011;46694;54.382;9.708;2022-09-09T15:00:00;6.83;;;1.80;;
60859;SDS011;46694;54.382;9.708;2022-09-09T15:02:42;6.07;;;1.20;;
60859;SDS011;46694;54.382;9.708;2022-09-09T15:05:22;5.80;;;1.23;;
60859;SDS011;46694;54.382;9.708;2022-09-09T15:08:02;9.00;;;0.83;;
60859;SDS011;46694;54.382;9.708;2022-09-09T15:10:42;6.07;;;0.80;;
60859;SDS011;46694;54.382;9.708;2022-09-09T15:13:23;9.73;;;1.43;;
60859;SDS011;46694;54.382;9.708;2022-09-09T15:16:23;7.97;;;0.90;;
60859;SDS011;46694;54.382;9.708;2022-09-09T15:19:05;5.57;;;0.90;;
60859;SDS011;46694;54.382;9.708;2022-09-09T15:21:45;4.73;;;0.70;;
60859;SDS011;46694;54.382;9.708;2022-09-09T15:24:26;10.43;;;1.13;;
60859;SDS011;46694;54.382;9.708;2022-09-09T15:27:05;5.63;;;0.73;;
60859;SDS011;46694;54.382;9.708;2022-09-09T15:29:45;4.90;;;0.67;;
60859;SDS011;46694;54.382;9.708;2022-09-09T15:32:26;11.50;;;0.80;;
60859;SDS011;46694;54.382;9.708;2022-09-09T15:35:06;4.70;;;0.70;;
60859;SDS011;46694;54.382;9.708;2022-09-09T15:37:46;8.67;;;0.87;;
60859;SDS011;46694;54.382;9.708;2022-09-09T15:40:25;3.77;;;0.60;;
60859;SDS011;46694;54.382;9.708;2022-09-09T15:43:06;7.60;;;0.50;;
60859;SDS011;46694;54.382;9.708;2022-09-09T15:45:46;5.43;;;0.80;;
60859;SDS011;46694;54.382;9.708;2022-09-09T15:48:33;11.50;;;1.00;;
60859;SDS011;46694;54.382;9.708;2022-09-09T15:51:13;5.20;;;0.97;;
60859;SDS011;46694;54.382;9.708;2022-09-09T15:53:56;15.73;;;1.20;;
60859;SDS011;46694;54.382;9.708;2022-09-09T15:56:36;14.03;;;0.97;;
60859;SDS011;46694;54.382;9.708;2022-09-09T15:59:16;10.67;;;1.30;;
60859;SDS011;46694;54.382;9.708;2022-09-09T16:01:57;12.70;;;1.27;;
60859;SDS011;46694;54.382;9.708;2022-09-09T16:04:38;6.93;;;0.73;;
60859;SDS011;46694;54.382;9.708;2022-09-09T16:07:18;8.13;;;1.10;;
60859;SDS011;46694;54.382;9.708;2022-09-09T16:09:59;7.03;;;1.00;;
60859;SDS011;46694;54.382;9.708;2022-09-09T16:12:39;15.90;;;0.90;;
60859;SDS011;46694;54.382;9.708;2022-09-09T16:15:18;7.30;;;1.10;;
60859;SDS011;46694;54.382;9.708;2022-09-09T16:18:01;5.60;;;0.80;;
60859;SDS011;46694;54.382;9.708;2022-09-09T16:20:41;7.33;;;1.00;;
60859;SDS011;46694;54.382;9.708;2022-09-09T16:23:21;5.33;;;0.60;;
60859;SDS011;46694;54.382;9.708;2022-09-09T16:26:01;5.50;;;0.60;;
60859;SDS011;46694;54.382;9.708;2022-09-09T16:28:41;4.80;;;0.60;;
60859;SDS011;46694;54.382;9.708;2022-09-09T16:31:23;5.20;;;0.90;;
60859;SDS011;46694;54.382;9.708;2022-09-09T16:34:03;4.83;;;0.63;;
60859;SDS011;46694;54.382;9.708;2022-09-09T16:36:43;4.80;;;0.60;;
60859;SDS011;46694;54.382;9.708;2022-09-09T16:39:23;7.30;;;0.70;;
60859;SDS011;46694;54.382;9.708;2022-09-09T16:42:03;5.30;;;0.60;;
60859;SDS011;46694;54.382;9.708;2022-09-09T16:44:43;4.83;;;0.60;;
60859;SDS011;46694;54.382;9.708;2022-09-09T16:47:22;5.23;;;0.50;;
60859;SDS011;46694;54.382;9.708;2022-09-09T16:50:03;4.70;;;0.70;;
60859;SDS011;46694;54.382;9.708;2022-09-09T16:52:42;3.17;;;0.50;;
60859;SDS011;46694;54.382;9.708;2022-09-09T16:55:22;9.43;;;0.90;;
60859;SDS011;46694;54.382;9.708;2022-09-09T16:58:02;7.13;;;1.10;;
60859;SDS011;46694;54.382;9.708;2022-09-09T17:00:42;9.13;;;0.97;;
60859;SDS011;46694;54.382;9.708;2022-09-09T17:03:22;5.30;;;0.73;;
60859;SDS011;46694;54.382;9.708;2022-09-09T17:06:02;5.57;;;0.90;;
60859;SDS011;46694;54.382;9.708;2022-09-09T17:08:47;2.97;;;0.70;;
60859;SDS011;46694;54.382;9.708;2022-09-09T17:11:32;5.90;;;0.90;;
60859;SDS011;46694;54.382;9.708;2022-09-09T17:14:14;4.57;;;0.60;;
60859;SDS011;46694;54.382;9.708;2022-09-09T17:16:55;3.93;;;1.03;;
60859;SDS011;46694;54.382;9.708;2022-09-09T17:19:36;2.40;;;0.60;;
60859;SDS011;46694;54.382;9.708;2022-09-09T17:22:15;2.80;;;0.50;;
60859;SDS011;46694;54.382;9.708;2022-09-09T17:24:55;4.57;;;1.20;;
60859;SDS011;46694;54.382;9.708;2022-09-09T17:27:34;1.10;;;0.83;;
60859;SDS011;46694;54.382;9.708;2022-09-09T17:30:14;1.03;;;0.70;;
60859;SDS011;46694;54.382;9.708;2022-09-09T17:32:55;5.80;;;1.23;;
60859;SDS011;46694;54.382;9.708;2022-09-09T17:35:34;1.37;;;1.00;;
60859;SDS011;46694;54.382;9.708;2022-09-09T17:38:14;2.03;;;1.20;;
60859;SDS011;46694;54.382;9.708;2022-09-09T17:41:01;2.60;;;1.17;;
60859;SDS011;46694;54.382;9.708;2022-09-09T17:43:48;3.33;;;1.43;;
60859;SDS011;46694;54.382;9.708;2022-09-09T17:46:30;2.70;;;0.83;;
60859;SDS011;46694;54.382;9.708;2022-09-09T17:49:14;10.67;;;1.20;;
60859;SDS011;46694;54.382;9.708;2022-09-09T17:51:56;1.63;;;0.80;;
60859;SDS011;46694;54.382;9.708;2022-09-09T17:54:35;6.30;;;0.90;;
60859;SDS011;46694;54.382;9.708;2022-09-09T17:57:15;2.40;;;1.30;;
60859;SDS011;46694;54.382;9.708;2022-09-09T17:59:57;2.13;;;1.03;;
60859;SDS011;46694;54.382;9.708;2022-09-09T18:02:37;1.30;;;0.80;;
60859;SDS011;46694;54.382;9.708;2022-09-09T18:05:17;4.20;;;1.07;;
60859;SDS011;46694;54.382;9.708;2022-09-09T18:07:56;1.33;;;1.00;;
60859;SDS011;46694;54.382;9.708;2022-09-09T18:10:36;2.20;;;1.07;;
60859;SDS011;46694;54.382;9.708;2022-09-09T18:13:15;1.63;;;0.70;;
60859;SDS011;46694;54.382;9.708;2022-09-09T18:15:55;2.80;;;1.10;;
60859;SDS011;46694;54.382;9.708;2022-09-09T18:18:57;4.70;;;1.03;;
60859;SDS011;46694;54.382;9.708;2022-09-09T18:21:37;2.07;;;0.83;;
60859;SDS011;46694;54.382;9.708;2022-09-09T18:24:17;3.10;;;1.30;;
60859;SDS011;46694;54.382;9.708;2022-09-09T18:26:58;4.43;;;1.00;;
60859;SDS011;46694;54.382;9.708;2022-09-09T18:29:38;1.40;;;1.30;;
60859;SDS011;46694;54.382;9.708;2022-09-09T18:32:18;5.80;;;1.30;;